sensor_id;sensor_type;location;lat;lon;timestamp;P1;durP1;ratioP1;P2;durP2;ratioP2
76729;SDS011;65653;53.106;18.046;2023-05-02T00:00:37;6.30;;;3.50;;
76729;SDS011;65653;53.106;18.046;2023-05-02T00:03:14;8.20;;;3.80;;
76729;SDS011;65653;53.106;18.046;2023-05-02T00:05:42;8.20;;;3.70;;
76729;SDS011;65653;53.106;18.046;2023-05-02T00:08:09;6.80;;;3.30;;
76729;SDS011;65653;53.106;18.046;2023-05-02T00:10:37;10.50;;;4.10;;
76729;SDS011;65653;53.106;18.046;2023-05-02T00:13:04;7.70;;;3.30;;
76729;SDS011;65653;53.106;18.046;2023-05-02T00:15:30;4.70;;;2.90;;
76729;SDS011;65653;53.106;18.046;2023-05-02T00:17:57;7.20;;;3.30;;
76729;SDS011;65653;53.106;18.046;2023-05-02T00:20:23;7.10;;;3.50;;
76729;SDS011;65653;53.106;18.046;2023-05-02T00:22:50;6.70;;;3.70;;
76729;SDS011;65653;53.106;18.046;2023-05-02T00:25:17;7.20;;;3.20;;
76729;SDS011;65653;53.106;18.046;2023-05-02T00:27:43;7.70;;;3.20;;
76729;SDS011;65653;53.106;18.046;2023-05-02T00:30:12;7.50;;;3.20;;
76729;SDS011;65653;53.106;18.046;2023-05-02T00:32:39;7.40;;;3.60;;
76729;SDS011;65653;53.106;18.046;2023-05-02T00:35:06;7.50;;;3.00;;
76729;SDS011;65653;53.106;18.046;2023-05-02T00:37:33;8.10;;;3.30;;
76729;SDS011;65653;53.106;18.046;2023-05-02T00:40:00;5.70;;;2.90;;
76729;SDS011;65653;53.106;18.046;2023-05-02T00:42:28;9.60;;;3.60;;
76729;SDS011;65653;53.106;18.046;2023-05-02T00:44:59;8.10;;;3.40;;
76729;SDS011;65653;53.106;18.046;2023-05-02T00:47:26;7.00;;;3.20;;
76729;SDS011;65653;53.106;18.046;2023-05-02T00:49:52;6.90;;;3.00;;
76729;SDS011;65653;53.106;18.046;2023-05-02T00:52:19;7.70;;;3.40;;
76729;SDS011;65653;53.106;18.046;2023-05-02T00:54:46;6.30;;;3.10;;
76729;SDS011;65653;53.106;18.046;2023-05-02T00:57:12;9.10;;;3.50;;
76729;SDS011;65653;53.106;18.046;2023-05-02T00:59:39;7.80;;;3.60;;
76729;SDS011;65653;53.106;18.046;2023-05-02T01:02:27;9.10;;;3.20;;
76729;SDS011;65653;53.106;18.046;2023-05-02T01:07:53;5.40;;;2.60;;
76729;SDS011;65653;53.106;18.046;2023-05-02T01:10:58;7.00;;;3.50;;
76729;SDS011;65653;53.106;18.046;2023-05-02T01:13:32;7.90;;;3.40;;
76729;SDS011;65653;53.106;18.046;2023-05-02T01:16:01;5.70;;;3.10;;
76729;SDS011;65653;53.106;18.046;2023-05-02T01:18:30;8.80;;;3.10;;
76729;SDS011;65653;53.106;18.046;2023-05-02T01:21:00;7.40;;;3.50;;
76729;SDS011;65653;53.106;18.046;2023-05-02T01:26:57;7.60;;;3.30;;
76729;SDS011;65653;53.106;18.046;2023-05-02T01:29:41;6.50;;;3.30;;
76729;SDS011;65653;53.106;18.046;2023-05-02T01:32:10;7.40;;;3.30;;
76729;SDS011;65653;53.106;18.046;2023-05-02T01:34:39;13.40;;;5.80;;
76729;SDS011;65653;53.106;18.046;2023-05-02T01:37:09;8.80;;;4.50;;
76729;SDS011;65653;53.106;18.046;2023-05-02T01:39:37;9.50;;;3.70;;
76729;SDS011;65653;53.106;18.046;2023-05-02T01:42:06;6.80;;;3.50;;
76729;SDS011;65653;53.106;18.046;2023-05-02T01:44:32;8.90;;;3.40;;
76729;SDS011;65653;53.106;18.046;2023-05-02T01:47:01;8.30;;;3.20;;
76729;SDS011;65653;53.106;18.046;2023-05-02T01:49:31;7.80;;;3.60;;
76729;SDS011;65653;53.106;18.046;2023-05-02T01:52:01;8.60;;;3.40;;
76729;SDS011;65653;53.106;18.046;2023-05-02T01:54:31;6.90;;;3.50;;
76729;SDS011;65653;53.106;18.046;2023-05-02T01:57:00;9.00;;;4.10;;
76729;SDS011;65653;53.106;18.046;2023-05-02T01:59:30;5.40;;;3.00;;
76729;SDS011;65653;53.106;18.046;2023-05-02T02:02:00;10.90;;;3.70;;
76729;SDS011;65653;53.106;18.046;2023-05-02T02:04:28;7.20;;;3.00;;
76729;SDS011;65653;53.106;18.046;2023-05-02T02:07:02;7.80;;;3.00;;
76729;SDS011;65653;53.106;18.046;2023-05-02T02:09:32;7.60;;;3.50;;
76729;SDS011;65653;53.106;18.046;2023-05-02T02:12:00;7.00;;;3.60;;
76729;SDS011;65653;53.106;18.046;2023-05-02T02:14:38;6.30;;;3.20;;
76729;SDS011;65653;53.106;18.046;2023-05-02T02:17:11;8.50;;;3.50;;
76729;SDS011;65653;53.106;18.046;2023-05-02T02:19:40;7.10;;;3.30;;
76729;SDS011;65653;53.106;18.046;2023-05-02T02:22:08;5.20;;;2.90;;
76729;SDS011;65653;53.106;18.046;2023-05-02T02:24:39;5.80;;;2.90;;
76729;SDS011;65653;53.106;18.046;2023-05-02T02:27:06;5.50;;;3.20;;
76729;SDS011;65653;53.106;18.046;2023-05-02T02:29:33;7.50;;;3.40;;
76729;SDS011;65653;53.106;18.046;2023-05-02T02:32:00;7.10;;;2.80;;
76729;SDS011;65653;53.106;18.046;2023-05-02T02:34:26;6.20;;;3.40;;
76729;SDS011;65653;53.106;18.046;2023-05-02T02:36:57;7.20;;;3.40;;
76729;SDS011;65653;53.106;18.046;2023-05-02T02:45:17;5.20;;;2.70;;
76729;SDS011;65653;53.106;18.046;2023-05-02T02:47:59;8.00;;;3.70;;
76729;SDS011;65653;53.106;18.046;2023-05-02T02:53:10;7.90;;;3.60;;
76729;SDS011;65653;53.106;18.046;2023-05-02T02:55:44;9.10;;;3.20;;
76729;SDS011;65653;53.106;18.046;2023-05-02T03:00:54;9.30;;;5.10;;
76729;SDS011;65653;53.106;18.046;2023-05-02T03:03:22;7.10;;;3.20;;
76729;SDS011;65653;53.106;18.046;2023-05-02T03:05:54;7.20;;;3.60;;
76729;SDS011;65653;53.106;18.046;2023-05-02T03:08:22;5.40;;;3.20;;
76729;SDS011;65653;53.106;18.046;2023-05-02T03:10:49;8.60;;;3.90;;
76729;SDS011;65653;53.106;18.046;2023-05-02T03:13:16;6.30;;;3.00;;
76729;SDS011;65653;53.106;18.046;2023-05-02T03:18:19;5.30;;;3.10;;
76729;SDS011;65653;53.106;18.046;2023-05-02T03:20:45;7.00;;;3.10;;
76729;SDS011;65653;53.106;18.046;2023-05-02T03:23:12;6.70;;;3.40;;
76729;SDS011;65653;53.106;18.046;2023-05-02T03:25:39;8.70;;;4.10;;
76729;SDS011;65653;53.106;18.046;2023-05-02T03:28:06;5.90;;;3.20;;
76729;SDS011;65653;53.106;18.046;2023-05-02T03:30:33;5.50;;;3.10;;
76729;SDS011;65653;53.106;18.046;2023-05-02T03:33:00;10.30;;;3.10;;
76729;SDS011;65653;53.106;18.046;2023-05-02T03:35:29;7.00;;;3.90;;
76729;SDS011;65653;53.106;18.046;2023-05-02T03:37:56;8.50;;;3.40;;
76729;SDS011;65653;53.106;18.046;2023-05-02T03:40:22;7.60;;;4.10;;
76729;SDS011;65653;53.106;18.046;2023-05-02T03:42:49;8.00;;;3.50;;
76729;SDS011;65653;53.106;18.046;2023-05-02T03:45:15;10.90;;;4.20;;
76729;SDS011;65653;53.106;18.046;2023-05-02T03:47:42;6.80;;;3.90;;
76729;SDS011;65653;53.106;18.046;2023-05-02T03:50:09;8.10;;;3.90;;
76729;SDS011;65653;53.106;18.046;2023-05-02T03:52:36;13.80;;;4.40;;
76729;SDS011;65653;53.106;18.046;2023-05-02T03:55:02;7.70;;;4.00;;
76729;SDS011;65653;53.106;18.046;2023-05-02T03:57:29;5.90;;;3.60;;
76729;SDS011;65653;53.106;18.046;2023-05-02T03:59:56;8.00;;;3.70;;
76729;SDS011;65653;53.106;18.046;2023-05-02T04:02:22;6.20;;;3.10;;
76729;SDS011;65653;53.106;18.046;2023-05-02T04:04:50;6.70;;;4.20;;
76729;SDS011;65653;53.106;18.046;2023-05-02T04:07:17;7.20;;;4.40;;
76729;SDS011;65653;53.106;18.046;2023-05-02T04:09:44;7.40;;;3.80;;
76729;SDS011;65653;53.106;18.046;2023-05-02T04:12:11;7.90;;;3.90;;
76729;SDS011;65653;53.106;18.046;2023-05-02T04:14:38;7.00;;;4.10;;
76729;SDS011;65653;53.106;18.046;2023-05-02T04:17:04;8.20;;;3.90;;
76729;SDS011;65653;53.106;18.046;2023-05-02T04:19:32;8.00;;;4.40;;
76729;SDS011;65653;53.106;18.046;2023-05-02T04:22:00;10.30;;;4.60;;
76729;SDS011;65653;53.106;18.046;2023-05-02T04:24:28;8.40;;;4.20;;
76729;SDS011;65653;53.106;18.046;2023-05-02T04:26:54;6.50;;;3.70;;
76729;SDS011;65653;53.106;18.046;2023-05-02T04:29:21;6.40;;;3.90;;
76729;SDS011;65653;53.106;18.046;2023-05-02T04:31:48;10.30;;;4.30;;
76729;SDS011;65653;53.106;18.046;2023-05-02T04:34:16;8.90;;;4.30;;
76729;SDS011;65653;53.106;18.046;2023-05-02T04:36:45;7.30;;;4.10;;
76729;SDS011;65653;53.106;18.046;2023-05-02T04:39:12;5.40;;;3.80;;
76729;SDS011;65653;53.106;18.046;2023-05-02T04:41:39;8.10;;;4.20;;
76729;SDS011;65653;53.106;18.046;2023-05-02T04:44:06;11.60;;;4.90;;
76729;SDS011;65653;53.106;18.046;2023-05-02T04:46:32;9.20;;;4.90;;
76729;SDS011;65653;53.106;18.046;2023-05-02T04:48:58;12.50;;;5.30;;
76729;SDS011;65653;53.106;18.046;2023-05-02T04:51:25;9.30;;;4.70;;
76729;SDS011;65653;53.106;18.046;2023-05-02T04:53:53;7.90;;;4.70;;
76729;SDS011;65653;53.106;18.046;2023-05-02T04:56:19;9.90;;;4.90;;
76729;SDS011;65653;53.106;18.046;2023-05-02T04:58:47;12.00;;;4.70;;
76729;SDS011;65653;53.106;18.046;2023-05-02T05:01:13;11.20;;;5.30;;
76729;SDS011;65653;53.106;18.046;2023-05-02T05:03:40;9.40;;;5.00;;
76729;SDS011;65653;53.106;18.046;2023-05-02T05:06:06;10.90;;;5.10;;
76729;SDS011;65653;53.106;18.046;2023-05-02T05:08:33;9.60;;;4.50;;
76729;SDS011;65653;53.106;18.046;2023-05-02T05:10:59;6.30;;;3.90;;
76729;SDS011;65653;53.106;18.046;2023-05-02T05:13:27;7.50;;;4.10;;
76729;SDS011;65653;53.106;18.046;2023-05-02T05:15:53;7.40;;;4.50;;
76729;SDS011;65653;53.106;18.046;2023-05-02T05:18:22;13.80;;;5.30;;
76729;SDS011;65653;53.106;18.046;2023-05-02T05:20:49;5.80;;;4.00;;
76729;SDS011;65653;53.106;18.046;2023-05-02T05:23:15;7.80;;;4.60;;
76729;SDS011;65653;53.106;18.046;2023-05-02T05:25:42;10.50;;;5.50;;
76729;SDS011;65653;53.106;18.046;2023-05-02T05:28:08;15.10;;;4.90;;
76729;SDS011;65653;53.106;18.046;2023-05-02T05:30:35;9.20;;;5.30;;
76729;SDS011;65653;53.106;18.046;2023-05-02T05:33:01;11.80;;;4.90;;
76729;SDS011;65653;53.106;18.046;2023-05-02T05:35:28;9.00;;;4.70;;
76729;SDS011;65653;53.106;18.046;2023-05-02T05:37:54;6.60;;;4.20;;
76729;SDS011;65653;53.106;18.046;2023-05-02T05:40:21;9.20;;;4.40;;
76729;SDS011;65653;53.106;18.046;2023-05-02T05:42:47;9.80;;;5.20;;
76729;SDS011;65653;53.106;18.046;2023-05-02T05:45:14;10.20;;;5.40;;
76729;SDS011;65653;53.106;18.046;2023-05-02T05:47:44;9.90;;;5.60;;
76729;SDS011;65653;53.106;18.046;2023-05-02T05:50:11;7.00;;;3.70;;
76729;SDS011;65653;53.106;18.046;2023-05-02T05:52:37;8.50;;;4.70;;
76729;SDS011;65653;53.106;18.046;2023-05-02T05:55:04;10.30;;;5.00;;
76729;SDS011;65653;53.106;18.046;2023-05-02T05:57:32;11.90;;;5.80;;
76729;SDS011;65653;53.106;18.046;2023-05-02T05:59:58;9.40;;;4.90;;
76729;SDS011;65653;53.106;18.046;2023-05-02T06:02:25;10.20;;;5.60;;
76729;SDS011;65653;53.106;18.046;2023-05-02T06:04:51;8.80;;;5.20;;
76729;SDS011;65653;53.106;18.046;2023-05-02T06:07:18;9.40;;;5.80;;
76729;SDS011;65653;53.106;18.046;2023-05-02T06:09:44;9.10;;;5.60;;
76729;SDS011;65653;53.106;18.046;2023-05-02T06:12:11;8.10;;;4.80;;
76729;SDS011;65653;53.106;18.046;2023-05-02T06:14:37;10.20;;;5.80;;
76729;SDS011;65653;53.106;18.046;2023-05-02T06:17:03;10.30;;;4.90;;
76729;SDS011;65653;53.106;18.046;2023-05-02T06:19:30;9.70;;;5.40;;
76729;SDS011;65653;53.106;18.046;2023-05-02T06:21:56;12.50;;;6.10;;
76729;SDS011;65653;53.106;18.046;2023-05-02T06:24:23;12.40;;;6.00;;
76729;SDS011;65653;53.106;18.046;2023-05-02T06:26:49;11.90;;;5.90;;
76729;SDS011;65653;53.106;18.046;2023-05-02T06:29:17;11.60;;;6.40;;
76729;SDS011;65653;53.106;18.046;2023-05-02T06:31:43;8.00;;;4.20;;
76729;SDS011;65653;53.106;18.046;2023-05-02T06:34:10;10.00;;;5.60;;
76729;SDS011;65653;53.106;18.046;2023-05-02T06:36:36;11.50;;;5.10;;
76729;SDS011;65653;53.106;18.046;2023-05-02T06:39:03;10.20;;;5.30;;
76729;SDS011;65653;53.106;18.046;2023-05-02T06:41:30;9.20;;;4.90;;
76729;SDS011;65653;53.106;18.046;2023-05-02T06:43:56;10.30;;;5.60;;
76729;SDS011;65653;53.106;18.046;2023-05-02T06:46:22;8.70;;;5.60;;
76729;SDS011;65653;53.106;18.046;2023-05-02T06:48:49;10.50;;;5.30;;
76729;SDS011;65653;53.106;18.046;2023-05-02T06:51:16;11.30;;;4.80;;
76729;SDS011;65653;53.106;18.046;2023-05-02T06:53:44;9.60;;;4.50;;
76729;SDS011;65653;53.106;18.046;2023-05-02T06:56:11;13.40;;;6.30;;
76729;SDS011;65653;53.106;18.046;2023-05-02T06:58:37;10.90;;;5.30;;
76729;SDS011;65653;53.106;18.046;2023-05-02T07:01:03;10.40;;;5.70;;
76729;SDS011;65653;53.106;18.046;2023-05-02T07:03:30;8.30;;;5.30;;
76729;SDS011;65653;53.106;18.046;2023-05-02T07:05:57;11.80;;;5.20;;
76729;SDS011;65653;53.106;18.046;2023-05-02T07:08:23;9.20;;;4.80;;
76729;SDS011;65653;53.106;18.046;2023-05-02T07:10:50;10.10;;;4.90;;
76729;SDS011;65653;53.106;18.046;2023-05-02T07:13:16;7.20;;;4.20;;
76729;SDS011;65653;53.106;18.046;2023-05-02T07:15:43;8.20;;;4.50;;
76729;SDS011;65653;53.106;18.046;2023-05-02T07:18:09;8.90;;;4.80;;
76729;SDS011;65653;53.106;18.046;2023-05-02T07:20:36;7.50;;;4.40;;
76729;SDS011;65653;53.106;18.046;2023-05-02T07:23:04;8.50;;;4.50;;
76729;SDS011;65653;53.106;18.046;2023-05-02T07:25:30;12.20;;;4.80;;
76729;SDS011;65653;53.106;18.046;2023-05-02T07:27:57;8.50;;;4.80;;
76729;SDS011;65653;53.106;18.046;2023-05-02T07:30:24;9.90;;;5.70;;
76729;SDS011;65653;53.106;18.046;2023-05-02T07:32:50;8.20;;;5.40;;
76729;SDS011;65653;53.106;18.046;2023-05-02T07:35:17;9.80;;;5.10;;
76729;SDS011;65653;53.106;18.046;2023-05-02T07:37:44;9.30;;;5.30;;
76729;SDS011;65653;53.106;18.046;2023-05-02T07:40:11;9.50;;;4.90;;
76729;SDS011;65653;53.106;18.046;2023-05-02T07:42:38;6.90;;;3.90;;
76729;SDS011;65653;53.106;18.046;2023-05-02T07:45:07;11.10;;;3.70;;
76729;SDS011;65653;53.106;18.046;2023-05-02T07:47:34;8.00;;;4.90;;
76729;SDS011;65653;53.106;18.046;2023-05-02T07:50:01;10.20;;;5.10;;
76729;SDS011;65653;53.106;18.046;2023-05-02T07:52:31;7.40;;;4.00;;
76729;SDS011;65653;53.106;18.046;2023-05-02T07:54:58;12.30;;;5.20;;
76729;SDS011;65653;53.106;18.046;2023-05-02T07:57:24;7.70;;;4.90;;
76729;SDS011;65653;53.106;18.046;2023-05-02T07:59:51;9.80;;;4.10;;
76729;SDS011;65653;53.106;18.046;2023-05-02T08:02:18;9.50;;;4.80;;
76729;SDS011;65653;53.106;18.046;2023-05-02T08:04:46;10.30;;;4.30;;
76729;SDS011;65653;53.106;18.046;2023-05-02T08:07:13;6.30;;;4.00;;
76729;SDS011;65653;53.106;18.046;2023-05-02T08:09:39;4.50;;;2.80;;
76729;SDS011;65653;53.106;18.046;2023-05-02T08:12:06;6.70;;;3.80;;
76729;SDS011;65653;53.106;18.046;2023-05-02T08:14:33;6.70;;;3.40;;
76729;SDS011;65653;53.106;18.046;2023-05-02T08:17:00;5.80;;;3.40;;
76729;SDS011;65653;53.106;18.046;2023-05-02T08:19:26;3.20;;;2.60;;
76729;SDS011;65653;53.106;18.046;2023-05-02T08:21:53;4.20;;;1.90;;
76729;SDS011;65653;53.106;18.046;2023-05-02T08:24:20;4.50;;;3.00;;
76729;SDS011;65653;53.106;18.046;2023-05-02T08:26:47;3.30;;;2.20;;
76729;SDS011;65653;53.106;18.046;2023-05-02T08:29:13;3.30;;;2.40;;
76729;SDS011;65653;53.106;18.046;2023-05-02T08:31:40;3.70;;;1.70;;
76729;SDS011;65653;53.106;18.046;2023-05-02T08:34:07;4.10;;;2.20;;
76729;SDS011;65653;53.106;18.046;2023-05-02T08:36:33;2.60;;;2.20;;
76729;SDS011;65653;53.106;18.046;2023-05-02T08:39:00;2.90;;;1.80;;
76729;SDS011;65653;53.106;18.046;2023-05-02T08:41:27;3.30;;;1.80;;
76729;SDS011;65653;53.106;18.046;2023-05-02T08:43:54;4.50;;;2.00;;
76729;SDS011;65653;53.106;18.046;2023-05-02T08:46:21;2.30;;;1.70;;
76729;SDS011;65653;53.106;18.046;2023-05-02T08:48:49;3.20;;;1.90;;
76729;SDS011;65653;53.106;18.046;2023-05-02T08:51:16;3.50;;;1.60;;
76729;SDS011;65653;53.106;18.046;2023-05-02T08:53:43;3.80;;;2.00;;
76729;SDS011;65653;53.106;18.046;2023-05-02T08:56:11;1.90;;;1.60;;
76729;SDS011;65653;53.106;18.046;2023-05-02T08:58:38;2.90;;;1.30;;
76729;SDS011;65653;53.106;18.046;2023-05-02T09:01:11;4.10;;;2.30;;
76729;SDS011;65653;53.106;18.046;2023-05-02T09:03:41;1.60;;;1.20;;
76729;SDS011;65653;53.106;18.046;2023-05-02T09:06:14;2.20;;;1.30;;
76729;SDS011;65653;53.106;18.046;2023-05-02T09:08:46;1.20;;;1.10;;
76729;SDS011;65653;53.106;18.046;2023-05-02T09:11:14;2.60;;;1.20;;
76729;SDS011;65653;53.106;18.046;2023-05-02T09:13:48;2.80;;;1.60;;
76729;SDS011;65653;53.106;18.046;2023-05-02T09:16:18;1.60;;;1.30;;
76729;SDS011;65653;53.106;18.046;2023-05-02T09:19:03;1.90;;;1.40;;
76729;SDS011;65653;53.106;18.046;2023-05-02T09:21:36;3.10;;;1.90;;
76729;SDS011;65653;53.106;18.046;2023-05-02T09:24:18;3.70;;;1.80;;
76729;SDS011;65653;53.106;18.046;2023-05-02T09:26:56;4.10;;;1.70;;
76729;SDS011;65653;53.106;18.046;2023-05-02T09:29:25;2.60;;;1.50;;
76729;SDS011;65653;53.106;18.046;2023-05-02T09:31:53;1.40;;;1.30;;
76729;SDS011;65653;53.106;18.046;2023-05-02T09:34:19;2.70;;;1.60;;
76729;SDS011;65653;53.106;18.046;2023-05-02T09:36:47;3.30;;;1.70;;
76729;SDS011;65653;53.106;18.046;2023-05-02T09:39:20;2.40;;;1.40;;
76729;SDS011;65653;53.106;18.046;2023-05-02T09:41:48;2.50;;;1.40;;
76729;SDS011;65653;53.106;18.046;2023-05-02T09:44:16;3.20;;;1.80;;
76729;SDS011;65653;53.106;18.046;2023-05-02T09:46:47;2.10;;;1.60;;
76729;SDS011;65653;53.106;18.046;2023-05-02T09:49:15;2.70;;;1.70;;
76729;SDS011;65653;53.106;18.046;2023-05-02T09:51:46;3.10;;;1.70;;
76729;SDS011;65653;53.106;18.046;2023-05-02T09:54:13;5.50;;;2.00;;
76729;SDS011;65653;53.106;18.046;2023-05-02T09:56:59;2.80;;;1.60;;
76729;SDS011;65653;53.106;18.046;2023-05-02T09:59:27;3.70;;;2.00;;
76729;SDS011;65653;53.106;18.046;2023-05-02T10:01:54;3.70;;;1.90;;
76729;SDS011;65653;53.106;18.046;2023-05-02T10:04:22;4.90;;;3.10;;
76729;SDS011;65653;53.106;18.046;2023-05-02T10:06:50;3.10;;;1.90;;
76729;SDS011;65653;53.106;18.046;2023-05-02T10:09:21;2.90;;;1.70;;
76729;SDS011;65653;53.106;18.046;2023-05-02T10:11:52;3.70;;;1.40;;
76729;SDS011;65653;53.106;18.046;2023-05-02T10:14:20;2.40;;;1.60;;
76729;SDS011;65653;53.106;18.046;2023-05-02T10:17:04;2.10;;;1.40;;
76729;SDS011;65653;53.106;18.046;2023-05-02T10:19:44;2.80;;;1.50;;
76729;SDS011;65653;53.106;18.046;2023-05-02T10:22:19;3.40;;;1.50;;
76729;SDS011;65653;53.106;18.046;2023-05-02T10:24:48;3.90;;;1.70;;
76729;SDS011;65653;53.106;18.046;2023-05-02T10:27:15;3.30;;;1.40;;
76729;SDS011;65653;53.106;18.046;2023-05-02T10:29:42;4.50;;;1.70;;
76729;SDS011;65653;53.106;18.046;2023-05-02T10:32:09;2.10;;;1.90;;
76729;SDS011;65653;53.106;18.046;2023-05-02T10:34:36;2.70;;;1.60;;
76729;SDS011;65653;53.106;18.046;2023-05-02T10:37:05;3.10;;;1.90;;
76729;SDS011;65653;53.106;18.046;2023-05-02T10:39:32;2.30;;;1.40;;
76729;SDS011;65653;53.106;18.046;2023-05-02T10:41:59;2.60;;;1.40;;
76729;SDS011;65653;53.106;18.046;2023-05-02T10:44:35;2.20;;;1.90;;
76729;SDS011;65653;53.106;18.046;2023-05-02T10:47:22;3.70;;;2.20;;
76729;SDS011;65653;53.106;18.046;2023-05-02T10:55:16;3.30;;;2.00;;
76729;SDS011;65653;53.106;18.046;2023-05-02T11:02:51;6.20;;;2.20;;
76729;SDS011;65653;53.106;18.046;2023-05-02T11:05:20;3.60;;;2.00;;
76729;SDS011;65653;53.106;18.046;2023-05-02T11:07:47;2.60;;;1.90;;
76729;SDS011;65653;53.106;18.046;2023-05-02T11:12:45;3.70;;;1.70;;
76729;SDS011;65653;53.106;18.046;2023-05-02T11:15:14;4.20;;;2.20;;
76729;SDS011;65653;53.106;18.046;2023-05-02T11:20:38;2.50;;;1.80;;
76729;SDS011;65653;53.106;18.046;2023-05-02T11:25:48;4.00;;;2.20;;
76729;SDS011;65653;53.106;18.046;2023-05-02T11:38:55;3.50;;;2.00;;
76729;SDS011;65653;53.106;18.046;2023-05-02T11:41:22;3.10;;;1.90;;
76729;SDS011;65653;53.106;18.046;2023-05-02T11:43:49;4.00;;;1.80;;
76729;SDS011;65653;53.106;18.046;2023-05-02T11:46:29;2.80;;;1.50;;
76729;SDS011;65653;53.106;18.046;2023-05-02T11:48:56;4.00;;;1.70;;
76729;SDS011;65653;53.106;18.046;2023-05-02T11:51:23;3.60;;;1.80;;
76729;SDS011;65653;53.106;18.046;2023-05-02T11:53:49;2.10;;;1.60;;
76729;SDS011;65653;53.106;18.046;2023-05-02T11:56:22;2.10;;;1.50;;
76729;SDS011;65653;53.106;18.046;2023-05-02T11:58:59;5.10;;;1.80;;
76729;SDS011;65653;53.106;18.046;2023-05-02T12:01:28;2.20;;;1.60;;
76729;SDS011;65653;53.106;18.046;2023-05-02T12:04:02;2.80;;;1.60;;
76729;SDS011;65653;53.106;18.046;2023-05-02T12:06:29;1.70;;;1.50;;
76729;SDS011;65653;53.106;18.046;2023-05-02T12:09:09;2.70;;;1.60;;
76729;SDS011;65653;53.106;18.046;2023-05-02T12:11:38;3.70;;;1.50;;
76729;SDS011;65653;53.106;18.046;2023-05-02T12:14:06;3.10;;;1.50;;
76729;SDS011;65653;53.106;18.046;2023-05-02T12:16:32;2.80;;;1.40;;
76729;SDS011;65653;53.106;18.046;2023-05-02T12:19:00;2.80;;;1.40;;
76729;SDS011;65653;53.106;18.046;2023-05-02T12:21:27;2.40;;;1.40;;
76729;SDS011;65653;53.106;18.046;2023-05-02T12:24:00;2.00;;;1.40;;
76729;SDS011;65653;53.106;18.046;2023-05-02T12:26:28;3.40;;;1.20;;
76729;SDS011;65653;53.106;18.046;2023-05-02T12:31:24;3.00;;;1.40;;
76729;SDS011;65653;53.106;18.046;2023-05-02T12:33:53;3.10;;;1.20;;
76729;SDS011;65653;53.106;18.046;2023-05-02T12:36:22;2.40;;;1.10;;
76729;SDS011;65653;53.106;18.046;2023-05-02T12:38:50;2.50;;;1.40;;
76729;SDS011;65653;53.106;18.046;2023-05-02T12:41:18;1.90;;;1.70;;
76729;SDS011;65653;53.106;18.046;2023-05-02T12:44:01;4.20;;;2.50;;
76729;SDS011;65653;53.106;18.046;2023-05-02T12:46:28;4.60;;;3.00;;
76729;SDS011;65653;53.106;18.046;2023-05-02T12:49:06;4.70;;;3.00;;
76729;SDS011;65653;53.106;18.046;2023-05-02T12:51:34;4.80;;;2.50;;
76729;SDS011;65653;53.106;18.046;2023-05-02T12:54:02;3.50;;;2.10;;
76729;SDS011;65653;53.106;18.046;2023-05-02T12:56:29;3.50;;;2.80;;
76729;SDS011;65653;53.106;18.046;2023-05-02T12:59:03;4.50;;;2.60;;
76729;SDS011;65653;53.106;18.046;2023-05-02T13:01:33;3.00;;;2.50;;
76729;SDS011;65653;53.106;18.046;2023-05-02T13:04:00;3.40;;;2.80;;
76729;SDS011;65653;53.106;18.046;2023-05-02T13:06:27;3.60;;;3.00;;
76729;SDS011;65653;53.106;18.046;2023-05-02T13:08:53;4.40;;;2.80;;
76729;SDS011;65653;53.106;18.046;2023-05-02T13:11:20;3.30;;;3.00;;
76729;SDS011;65653;53.106;18.046;2023-05-02T13:13:46;2.70;;;2.20;;
76729;SDS011;65653;53.106;18.046;2023-05-02T13:16:13;4.80;;;2.50;;
76729;SDS011;65653;53.106;18.046;2023-05-02T13:18:39;4.10;;;2.80;;
76729;SDS011;65653;53.106;18.046;2023-05-02T13:21:06;3.30;;;2.50;;
76729;SDS011;65653;53.106;18.046;2023-05-02T13:23:32;3.40;;;2.60;;
76729;SDS011;65653;53.106;18.046;2023-05-02T13:25:59;5.40;;;2.70;;
76729;SDS011;65653;53.106;18.046;2023-05-02T13:28:25;2.70;;;2.40;;
76729;SDS011;65653;53.106;18.046;2023-05-02T13:30:54;3.80;;;3.00;;
76729;SDS011;65653;53.106;18.046;2023-05-02T13:33:20;3.60;;;2.90;;
76729;SDS011;65653;53.106;18.046;2023-05-02T13:35:47;3.80;;;2.90;;
76729;SDS011;65653;53.106;18.046;2023-05-02T13:38:13;4.90;;;2.60;;
76729;SDS011;65653;53.106;18.046;2023-05-02T13:40:40;4.30;;;2.90;;
76729;SDS011;65653;53.106;18.046;2023-05-02T13:43:06;4.40;;;3.10;;
76729;SDS011;65653;53.106;18.046;2023-05-02T13:45:33;3.60;;;2.60;;
76729;SDS011;65653;53.106;18.046;2023-05-02T13:47:59;4.80;;;2.80;;
76729;SDS011;65653;53.106;18.046;2023-05-02T13:50:26;4.10;;;2.70;;
76729;SDS011;65653;53.106;18.046;2023-05-02T13:52:52;4.00;;;2.10;;
76729;SDS011;65653;53.106;18.046;2023-05-02T13:55:19;3.70;;;2.60;;
76729;SDS011;65653;53.106;18.046;2023-05-02T13:57:45;2.80;;;2.20;;
76729;SDS011;65653;53.106;18.046;2023-05-02T14:00:12;2.20;;;1.90;;
76729;SDS011;65653;53.106;18.046;2023-05-02T14:02:39;2.50;;;1.80;;
76729;SDS011;65653;53.106;18.046;2023-05-02T14:05:06;2.20;;;1.80;;
76729;SDS011;65653;53.106;18.046;2023-05-02T14:07:32;3.60;;;2.20;;
76729;SDS011;65653;53.106;18.046;2023-05-02T14:09:59;3.10;;;2.30;;
76729;SDS011;65653;53.106;18.046;2023-05-02T14:12:26;2.50;;;1.70;;
76729;SDS011;65653;53.106;18.046;2023-05-02T14:14:52;2.90;;;1.70;;
76729;SDS011;65653;53.106;18.046;2023-05-02T14:17:19;2.70;;;2.00;;
76729;SDS011;65653;53.106;18.046;2023-05-02T14:19:46;3.80;;;1.90;;
76729;SDS011;65653;53.106;18.046;2023-05-02T14:22:13;2.50;;;1.70;;
76729;SDS011;65653;53.106;18.046;2023-05-02T14:24:39;2.10;;;1.90;;
76729;SDS011;65653;53.106;18.046;2023-05-02T14:27:06;2.20;;;1.80;;
76729;SDS011;65653;53.106;18.046;2023-05-02T14:29:38;2.80;;;1.80;;
76729;SDS011;65653;53.106;18.046;2023-05-02T14:32:05;1.20;;;1.10;;
76729;SDS011;65653;53.106;18.046;2023-05-02T14:34:31;2.20;;;1.20;;
76729;SDS011;65653;53.106;18.046;2023-05-02T14:36:58;1.40;;;1.00;;
76729;SDS011;65653;53.106;18.046;2023-05-02T14:39:24;1.40;;;1.10;;
76729;SDS011;65653;53.106;18.046;2023-05-02T14:41:52;1.10;;;1.00;;
76729;SDS011;65653;53.106;18.046;2023-05-02T14:44:19;4.20;;;2.20;;
76729;SDS011;65653;53.106;18.046;2023-05-02T14:46:45;1.40;;;1.00;;
76729;SDS011;65653;53.106;18.046;2023-05-02T14:49:12;0.80;;;0.80;;
76729;SDS011;65653;53.106;18.046;2023-05-02T14:51:38;0.90;;;0.90;;
76729;SDS011;65653;53.106;18.046;2023-05-02T14:54:05;1.90;;;1.00;;
76729;SDS011;65653;53.106;18.046;2023-05-02T14:56:32;1.90;;;0.80;;
76729;SDS011;65653;53.106;18.046;2023-05-02T14:59:00;1.40;;;1.30;;
76729;SDS011;65653;53.106;18.046;2023-05-02T15:01:27;1.60;;;0.80;;
76729;SDS011;65653;53.106;18.046;2023-05-02T15:03:55;2.20;;;1.20;;
76729;SDS011;65653;53.106;18.046;2023-05-02T15:06:22;1.40;;;1.00;;
76729;SDS011;65653;53.106;18.046;2023-05-02T15:08:48;0.70;;;0.60;;
76729;SDS011;65653;53.106;18.046;2023-05-02T15:11:15;1.40;;;0.90;;
76729;SDS011;65653;53.106;18.046;2023-05-02T15:13:41;1.50;;;1.00;;
76729;SDS011;65653;53.106;18.046;2023-05-02T15:16:08;1.30;;;1.10;;
76729;SDS011;65653;53.106;18.046;2023-05-02T15:18:35;1.10;;;0.70;;
76729;SDS011;65653;53.106;18.046;2023-05-02T15:21:02;0.60;;;0.60;;
76729;SDS011;65653;53.106;18.046;2023-05-02T15:23:29;0.70;;;0.70;;
76729;SDS011;65653;53.106;18.046;2023-05-02T15:25:55;1.60;;;0.90;;
76729;SDS011;65653;53.106;18.046;2023-05-02T15:28:22;1.00;;;0.60;;
76729;SDS011;65653;53.106;18.046;2023-05-02T15:30:48;1.20;;;0.60;;